Time;durP1;ratioP1;P1;durP2;ratioP2;P2;SDS_P1;SDS_P2;PMS_P1;PMS_P2;Temp;Humidity;BMP_temperature;BMP_pressure;BME280_temperature;BME280_humidity;BME280_pressure;Samples;Min_cycle;Max_cycle;Signal;HPM_P1;HPM_P2
2022/08/15 00:00:36;;;;;;;;;;;21.50;99.90;;;;;;5085717;28;19999;-68
2022/08/15 00:03:04;;;;;;;;;;;21.40;99.90;;;;;;5085940;28;19927;-67
2022/08/15 00:05:33;;;;;;;;;;;21.40;99.90;;;;;;5086323;28;19944;-67
2022/08/15 00:08:00;;;;;;;;;;;21.30;99.90;;;;;;5086217;28;20225;-68
2022/08/15 00:10:27;;;;;;;;;;;21.30;99.90;;;;;;5086251;28;20294;-67
2022/08/15 00:12:55;;;;;;;;;;;21.40;99.90;;;;;;5086020;28;19983;-68
2022/08/15 00:15:23;;;;;;;;;;;21.40;99.90;;;;;;5085897;28;19927;-67
2022/08/15 00:17:50;;;;;;;;;;;21.40;99.90;;;;;;5086051;28;20226;-67
2022/08/15 00:20:17;;;;;;;;;;;21.50;99.90;;;;;;5085859;28;19920;-68
2022/08/15 00:22:46;;;;;;;;;;;21.50;99.90;;;;;;5085917;28;19989;-67
2022/08/15 00:25:13;;;;;;;;;;;21.50;99.90;;;;;;5085905;28;19924;-67
2022/08/15 00:27:40;;;;;;;;;;;21.50;99.90;;;;;;5085975;28;19921;-67
2022/08/15 00:30:08;;;;;;;;;;;21.50;99.90;;;;;;5085814;28;19920;-68
2022/08/15 00:32:36;;;;;;;;;;;21.50;99.90;;;;;;5085752;28;20127;-68
2022/08/15 00:35:04;;;;;;;;;;;21.50;99.90;;;;;;5085766;28;19991;-67
2022/08/15 00:37:31;;;;;;;;;;;21.50;99.90;;;;;;5086126;28;19952;-67
2022/08/15 00:39:57;;;;;;;;;;;21.50;99.90;;;;;;5085761;28;19959;-68
2022/08/15 00:42:23;;;;;;;;;;;21.40;99.90;;;;;;5085460;28;19921;-68
2022/08/15 00:44:50;;;;;;;;;;;21.40;99.90;;;;;;5085272;28;19979;-67
2022/08/15 00:47:18;;;;;;;;;;;21.30;99.90;;;;;;5085607;28;19924;-67
2022/08/15 00:49:47;;;;;;;;;;;21.30;99.90;;;;;;5085436;28;19980;-67
2022/08/15 00:52:15;;;;;;;;;;;21.30;99.90;;;;;;5084214;28;19927;-67
2022/08/15 00:54:43;;;;;;;;;;;21.30;99.90;;;;;;5085168;28;19974;-67
2022/08/15 00:57:12;;;;;;;;;;;21.30;99.90;;;;;;5085241;28;19963;-68
2022/08/15 00:59:40;;;;;;;;;;;21.30;99.90;;;;;;5085504;28;19963;-68
2022/08/15 01:02:08;;;;;;;;;;;21.30;99.90;;;;;;5085239;28;19963;-67
2022/08/15 01:04:36;;;;;;;;;;;21.30;99.90;;;;;;5084928;28;19991;-68
2022/08/15 01:07:05;;;;;;;;;;;21.30;99.90;;;;;;5085017;28;19962;-67
2022/08/15 01:09:32;;;;;;;;;;;21.30;99.90;;;;;;5085002;28;19987;-67
2022/08/15 01:12:02;;;;;;;;;;;21.30;99.90;;;;;;5085218;28;19956;-67
2022/08/15 01:14:29;;;;;;;;;;;21.30;99.90;;;;;;5084817;28;19952;-68
2022/08/15 01:16:56;;;;;;;;;;;21.20;99.90;;;;;;5085044;28;20011;-67
2022/08/15 01:19:24;;;;;;;;;;;21.20;99.90;;;;;;5085063;28;19983;-68
2022/08/15 01:22:00;;;;;;;;;;;21.10;99.90;;;;;;5084762;28;19987;-68
2022/08/15 01:24:39;;;;;;;;;;;21.10;99.90;;;;;;5084516;28;20265;-67
2022/08/15 01:27:06;;;;;;;;;;;21.10;99.90;;;;;;5084949;28;19970;-67
2022/08/15 01:29:33;;;;;;;;;;;21.00;99.90;;;;;;5084666;28;19963;-67
2022/08/15 01:32:00;;;;;;;;;;;21.10;99.90;;;;;;5084638;28;19983;-67
2022/08/15 01:34:26;;;;;;;;;;;21.00;99.90;;;;;;5084335;28;19956;-67
2022/08/15 01:36:53;;;;;;;;;;;21.00;99.90;;;;;;5084333;28;20199;-67
2022/08/15 01:39:24;;;;;;;;;;;21.00;99.90;;;;;;5084729;28;19921;-67
2022/08/15 01:41:55;;;;;;;;;;;21.00;99.90;;;;;;5084706;28;19921;-67
2022/08/15 01:44:26;;;;;;;;;;;21.00;99.90;;;;;;5084064;28;19920;-68
2022/08/15 01:46:56;;;;;;;;;;;20.90;99.90;;;;;;5084103;28;19928;-68
2022/08/15 01:49:30;;;;;;;;;;;20.90;99.90;;;;;;5084127;28;20111;-68
2022/08/15 01:51:59;;;;;;;;;;;20.90;99.90;;;;;;5084407;28;19943;-67
2022/08/15 01:54:27;;;;;;;;;;;20.80;99.90;;;;;;5083906;28;19943;-67
2022/08/15 01:56:56;;;;;;;;;;;20.80;99.90;;;;;;5083686;28;19958;-67
2022/08/15 01:59:24;;;;;;;;;;;20.80;99.90;;;;;;5083911;28;19951;-68
2022/08/15 02:01:52;;;;;;;;;;;20.70;99.90;;;;;;5083758;28;20003;-67
2022/08/15 02:04:20;;;;;;;;;;;20.70;99.90;;;;;;5083519;28;19952;-67
2022/08/15 02:06:47;;;;;;;;;;;20.60;99.90;;;;;;5083865;28;19958;-67
2022/08/15 02:09:15;;;;;;;;;;;20.60;99.90;;;;;;5083976;28;19957;-67
2022/08/15 02:11:42;;;;;;;;;;;20.60;99.90;;;;;;5083818;28;19921;-68
2022/08/15 02:14:11;;;;;;;;;;;20.70;99.90;;;;;;5083342;28;20257;-68
2022/08/15 02:16:38;;;;;;;;;;;20.70;99.90;;;;;;5083852;28;19952;-68
2022/08/15 02:19:06;;;;;;;;;;;20.70;99.90;;;;;;5083841;28;20174;-67
2022/08/15 02:21:33;;;;;;;;;;;20.70;99.90;;;;;;5083579;28;19920;-67
2022/08/15 02:23:59;;;;;;;;;;;20.70;99.90;;;;;;5083498;28;19987;-67
2022/08/15 02:26:26;;;;;;;;;;;20.60;99.90;;;;;;5083390;28;19995;-67
2022/08/15 02:28:53;;;;;;;;;;;20.70;99.90;;;;;;5083465;28;19983;-67
2022/08/15 02:31:24;;;;;;;;;;;20.70;99.90;;;;;;5083480;28;20140;-68
2022/08/15 02:33:52;;;;;;;;;;;20.70;99.90;;;;;;5083430;28;19959;-68
2022/08/15 02:36:19;;;;;;;;;;;20.60;99.90;;;;;;5083660;28;19955;-67
2022/08/15 02:38:47;;;;;;;;;;;20.70;99.90;;;;;;5083610;28;19983;-67
2022/08/15 02:41:14;;;;;;;;;;;20.60;99.90;;;;;;5083354;28;20155;-67
2022/08/15 02:43:43;;;;;;;;;;;20.60;99.90;;;;;;5083166;28;19924;-67
2022/08/15 02:46:10;;;;;;;;;;;20.60;99.90;;;;;;5082750;28;19966;-67
2022/08/15 02:48:38;;;;;;;;;;;20.60;99.90;;;;;;5082679;28;19920;-67
2022/08/15 02:51:07;;;;;;;;;;;20.60;99.90;;;;;;5083426;28;19987;-67
2022/08/15 02:53:34;;;;;;;;;;;20.70;99.90;;;;;;5083284;28;19921;-67
2022/08/15 02:56:01;;;;;;;;;;;20.70;99.90;;;;;;5082963;28;19927;-68
2022/08/15 02:58:28;;;;;;;;;;;20.70;99.90;;;;;;5083279;28;19952;-67
2022/08/15 03:00:54;;;;;;;;;;;20.70;99.90;;;;;;5082783;28;19988;-67
2022/08/15 03:03:21;;;;;;;;;;;20.70;99.90;;;;;;5082748;28;19927;-67
2022/08/15 03:05:49;;;;;;;;;;;20.70;99.90;;;;;;5082953;28;19920;-67
2022/08/15 03:08:16;;;;;;;;;;;20.70;99.90;;;;;;5083393;28;19958;-67
2022/08/15 03:10:43;;;;;;;;;;;20.60;99.90;;;;;;5082963;28;19952;-67
2022/08/15 03:13:11;;;;;;;;;;;20.60;99.90;;;;;;5082868;28;19988;-67
2022/08/15 03:15:39;;;;;;;;;;;20.60;99.90;;;;;;5084700;28;20255;-67
2022/08/15 03:18:06;;;;;;;;;;;20.60;99.90;;;;;;5087311;28;19956;-67
2022/08/15 03:20:33;;;;;;;;;;;20.50;99.90;;;;;;5086985;28;19983;-68
2022/08/15 03:23:03;;;;;;;;;;;20.50;99.90;;;;;;5086120;28;19920;-67
2022/08/15 03:25:30;;;;;;;;;;;20.60;99.90;;;;;;5086990;28;19966;-68
2022/08/15 03:27:56;;;;;;;;;;;20.60;99.90;;;;;;5087068;28;19955;-67
2022/08/15 03:30:23;;;;;;;;;;;20.60;99.90;;;;;;5087002;28;19920;-68
2022/08/15 03:32:51;;;;;;;;;;;20.60;99.90;;;;;;5086613;28;19962;-67
2022/08/15 03:35:18;;;;;;;;;;;20.60;99.90;;;;;;5086661;28;19963;-67
2022/08/15 03:37:45;;;;;;;;;;;20.70;99.90;;;;;;5086608;28;20219;-68
2022/08/15 03:40:14;;;;;;;;;;;20.70;99.90;;;;;;5086644;28;19983;-67
2022/08/15 03:42:50;;;;;;;;;;;20.70;99.90;;;;;;5086376;28;19967;-67
2022/08/15 03:45:18;;;;;;;;;;;20.70;99.90;;;;;;5085969;28;19943;-67
2022/08/15 03:47:47;;;;;;;;;;;20.80;99.90;;;;;;5085051;28;20282;-67
2022/08/15 03:50:14;;;;;;;;;;;20.80;99.90;;;;;;5093921;22;19928;-68
2022/08/15 03:52:48;;;;;;;;;;;20.80;99.90;;;;;;5086359;28;19959;-68
2022/08/15 03:55:16;;;;;;;;;;;20.80;99.90;;;;;;5086590;28;19991;-68
2022/08/15 03:57:44;;;;;;;;;;;20.80;99.90;;;;;;5085863;28;19920;-68
2022/08/15 04:00:11;;;;;;;;;;;20.90;99.90;;;;;;5085198;28;19927;-68
2022/08/15 04:02:38;;;;;;;;;;;20.90;99.90;;;;;;5085839;28;19920;-68
2022/08/15 04:05:07;;;;;;;;;;;20.90;99.90;;;;;;5086278;28;19987;-68
2022/08/15 04:07:35;;;;;;;;;;;21.00;99.90;;;;;;5086301;28;19921;-68
2022/08/15 04:10:03;;;;;;;;;;;21.00;99.90;;;;;;5086251;28;19921;-68
2022/08/15 04:12:34;;;;;;;;;;;21.00;99.90;;;;;;5085878;28;19984;-69
2022/08/15 04:15:01;;;;;;;;;;;21.00;99.90;;;;;;5085860;28;19975;-68
2022/08/15 04:17:28;;;;;;;;;;;21.00;99.90;;;;;;5086362;28;19924;-68
2022/08/15 04:19:55;;;;;;;;;;;21.00;99.90;;;;;;5086153;28;19979;-68
2022/08/15 04:22:28;;;;;;;;;;;20.90;99.90;;;;;;5085555;28;19970;-68
2022/08/15 04:24:55;;;;;;;;;;;20.90;99.90;;;;;;5085608;28;19921;-68
2022/08/15 04:27:21;;;;;;;;;;;21.00;99.90;;;;;;5085618;28;19920;-68
2022/08/15 04:29:49;;;;;;;;;;;21.00;99.90;;;;;;5085652;28;20174;-68
2022/08/15 04:32:16;;;;;;;;;;;21.00;99.90;;;;;;5085884;28;19947;-68
2022/08/15 04:34:42;;;;;;;;;;;21.00;99.90;;;;;;5085488;28;19948;-68
2022/08/15 04:37:11;;;;;;;;;;;21.00;99.90;;;;;;5086003;28;19928;-68
2022/08/15 04:39:38;;;;;;;;;;;21.00;99.90;;;;;;5085320;28;19920;-69
2022/08/15 04:42:05;;;;;;;;;;;21.00;99.90;;;;;;5085295;28;19991;-68
2022/08/15 04:44:31;;;;;;;;;;;21.00;99.90;;;;;;5084631;28;19920;-68
2022/08/15 04:46:59;;;;;;;;;;;21.00;99.90;;;;;;5084771;28;19927;-68
2022/08/15 04:49:26;;;;;;;;;;;21.00;99.90;;;;;;5085167;28;19956;-68
2022/08/15 04:51:53;;;;;;;;;;;21.00;99.90;;;;;;5085297;28;19988;-68
2022/08/15 04:54:19;;;;;;;;;;;21.00;99.90;;;;;;5085067;28;19921;-68
2022/08/15 04:56:46;;;;;;;;;;;21.00;99.90;;;;;;5085021;28;20249;-68
2022/08/15 04:59:13;;;;;;;;;;;21.00;99.90;;;;;;5084451;28;19920;-68
2022/08/15 05:01:40;;;;;;;;;;;21.00;99.90;;;;;;5085292;28;19924;-68
2022/08/15 05:04:08;;;;;;;;;;;21.00;99.90;;;;;;5085024;28;19962;-68
2022/08/15 05:06:35;;;;;;;;;;;21.00;99.90;;;;;;5084846;28;19983;-68
2022/08/15 05:09:01;;;;;;;;;;;21.00;99.90;;;;;;5084968;28;20000;-68
2022/08/15 05:11:28;;;;;;;;;;;21.00;99.90;;;;;;5084830;28;19920;-67
2022/08/15 05:13:55;;;;;;;;;;;21.10;99.90;;;;;;5084621;28;19920;-68
2022/08/15 05:16:21;;;;;;;;;;;21.10;99.90;;;;;;5084929;28;20050;-68
2022/08/15 05:18:48;;;;;;;;;;;21.10;99.90;;;;;;5084697;28;19920;-68
2022/08/15 05:21:16;;;;;;;;;;;21.10;99.90;;;;;;5084623;28;19928;-68
2022/08/15 05:23:43;;;;;;;;;;;21.10;99.90;;;;;;5084220;28;20275;-68
2022/08/15 05:26:10;;;;;;;;;;;21.10;99.90;;;;;;5084784;28;19957;-68
2022/08/15 05:28:37;;;;;;;;;;;21.10;99.90;;;;;;5084463;28;20211;-68
2022/08/15 05:31:05;;;;;;;;;;;21.10;99.90;;;;;;5084695;28;19952;-69
2022/08/15 05:33:32;;;;;;;;;;;21.10;99.90;;;;;;5084266;28;19928;-68
2022/08/15 05:36:02;;;;;;;;;;;21.20;99.90;;;;;;5084240;28;19987;-68
2022/08/15 05:38:33;;;;;;;;;;;21.10;99.90;;;;;;5084112;28;19920;-68
2022/08/15 05:41:15;;;;;;;;;;;21.10;99.90;;;;;;5084560;28;19988;-68
2022/08/15 05:43:44;;;;;;;;;;;21.10;99.90;;;;;;5084298;28;19994;-68
2022/08/15 05:46:15;;;;;;;;;;;21.20;99.90;;;;;;5083704;28;19990;-68
2022/08/15 05:48:42;;;;;;;;;;;21.20;99.90;;;;;;5084161;28;19988;-68
2022/08/15 05:51:10;;;;;;;;;;;21.30;99.90;;;;;;5084317;28;19999;-67
2022/08/15 05:53:46;;;;;;;;;;;21.30;99.90;;;;;;5083766;28;19962;-69
2022/08/15 05:56:17;;;;;;;;;;;21.30;99.90;;;;;;5084210;28;20124;-68
2022/08/15 05:58:46;;;;;;;;;;;21.20;99.90;;;;;;5084339;28;20389;-68
2022/08/15 06:01:15;;;;;;;;;;;21.30;99.90;;;;;;5083846;28;19963;-68
2022/08/15 06:03:44;;;;;;;;;;;21.30;99.90;;;;;;5083673;28;19992;-68
2022/08/15 06:06:12;;;;;;;;;;;21.30;99.90;;;;;;5083936;28;20140;-68
2022/08/15 06:08:42;;;;;;;;;;;21.30;99.90;;;;;;5083851;28;19966;-68
2022/08/15 06:11:11;;;;;;;;;;;21.30;99.90;;;;;;5083826;28;19956;-68
2022/08/15 06:13:40;;;;;;;;;;;21.20;99.90;;;;;;5083540;28;19959;-68
2022/08/15 06:16:16;;;;;;;;;;;21.30;99.90;;;;;;5083472;28;19987;-68
2022/08/15 06:18:43;;;;;;;;;;;21.30;99.90;;;;;;5083440;28;19927;-68
2022/08/15 06:21:22;;;;;;;;;;;21.20;99.90;;;;;;5083797;28;19920;-69
2022/08/15 06:23:56;;;;;;;;;;;21.20;99.90;;;;;;5083345;28;20123;-68
2022/08/15 06:26:37;;;;;;;;;;;21.30;99.90;;;;;;5083501;28;19988;-69
2022/08/15 06:29:10;;;;;;;;;;;21.20;99.90;;;;;;5083661;28;19928;-68
2022/08/15 06:31:38;;;;;;;;;;;21.20;99.90;;;;;;5083708;28;19984;-68
2022/08/15 06:34:08;;;;;;;;;;;21.20;99.90;;;;;;5083237;28;19963;-68
2022/08/15 06:36:40;;;;;;;;;;;21.20;99.90;;;;;;5083344;28;19962;-68
2022/08/15 06:39:16;;;;;;;;;;;21.10;99.90;;;;;;5083217;28;19955;-68
2022/08/15 06:41:45;;;;;;;;;;;21.20;99.90;;;;;;5083428;28;20156;-68
2022/08/15 06:44:11;;;;;;;;;;;21.20;99.90;;;;;;5082389;28;19983;-68
2022/08/15 06:46:40;;;;;;;;;;;21.10;99.90;;;;;;5082730;28;19956;-68
2022/08/15 06:49:09;;;;;;;;;;;21.20;99.90;;;;;;5074922;28;19928;-68
2022/08/15 06:51:37;;;;;;;;;;;21.20;99.90;;;;;;5083059;28;20172;-68
2022/08/15 06:54:04;;;;;;;;;;;21.30;99.90;;;;;;5082999;28;19959;-68
2022/08/15 06:56:38;;;;;;;;;;;21.30;99.90;;;;;;5083231;28;19978;-68
2022/08/15 06:59:08;;;;;;;;;;;21.30;99.90;;;;;;5082647;28;20000;-68
2022/08/15 07:01:49;;;;;;;;;;;21.40;99.90;;;;;;5083083;28;19927;-68
2022/08/15 07:04:19;;;;;;;;;;;21.50;99.90;;;;;;5082865;28;19962;-68
2022/08/15 07:06:49;;;;;;;;;;;21.60;99.90;;;;;;5083356;28;19984;-68
2022/08/15 07:09:25;;;;;;;;;;;21.60;99.90;;;;;;5082956;28;19921;-68
2022/08/15 07:11:56;;;;;;;;;;;21.70;99.90;;;;;;5083027;28;19926;-68
2022/08/15 07:14:26;;;;;;;;;;;21.70;99.90;;;;;;5082621;28;19955;-69
2022/08/15 07:16:58;;;;;;;;;;;21.80;99.90;;;;;;5083132;28;19940;-68
2022/08/15 07:19:26;;;;;;;;;;;21.90;99.90;;;;;;5083067;28;19988;-68
2022/08/15 07:21:53;;;;;;;;;;;21.90;99.90;;;;;;5083169;28;19924;-68
2022/08/15 07:24:25;;;;;;;;;;;21.90;99.90;;;;;;5082712;28;19948;-68
2022/08/15 07:26:55;;;;;;;;;;;22.00;99.90;;;;;;5083338;28;19958;-68
2022/08/15 07:29:27;;;;;;;;;;;22.10;99.90;;;;;;5083188;28;19920;-68
2022/08/15 07:31:59;;;;;;;;;;;22.10;99.90;;;;;;5083135;28;19927;-68
2022/08/15 07:34:26;;;;;;;;;;;22.20;99.90;;;;;;5082876;28;19987;-68
2022/08/15 07:36:56;;;;;;;;;;;22.20;99.90;;;;;;5082859;28;19952;-68
2022/08/15 07:39:26;;;;;;;;;;;22.30;99.90;;;;;;5082806;28;19943;-68
2022/08/15 07:41:53;;;;;;;;;;;22.30;99.90;;;;;;5082785;28;19920;-68
2022/08/15 07:44:22;;;;;;;;;;;22.40;99.90;;;;;;5081857;28;19959;-68
2022/08/15 07:46:56;;;;;;;;;;;22.40;99.90;;;;;;5082366;28;20009;-68
2022/08/15 07:49:25;;;;;;;;;;;22.40;99.90;;;;;;5082711;28;20222;-69
2022/08/15 07:51:58;;;;;;;;;;;22.40;99.90;;;;;;5083266;28;20227;-68
2022/08/15 07:54:26;;;;;;;;;;;22.50;99.90;;;;;;5082559;28;20142;-68
2022/08/15 07:56:54;;;;;;;;;;;22.60;99.90;;;;;;5082953;28;20148;-68
2022/08/15 07:59:22;;;;;;;;;;;22.60;99.90;;;;;;5082179;28;20124;-68
2022/08/15 08:01:51;;;;;;;;;;;22.60;99.90;;;;;;5084643;28;19920;-68
2022/08/15 08:04:21;;;;;;;;;;;22.60;99.90;;;;;;5085898;28;19920;-68
2022/08/15 08:06:50;;;;;;;;;;;22.60;99.90;;;;;;5086414;28;19921;-68
2022/08/15 08:09:20;;;;;;;;;;;22.70;99.90;;;;;;5086601;28;19920;-68
2022/08/15 08:11:50;;;;;;;;;;;22.80;99.90;;;;;;5086343;28;19983;-68
2022/08/15 08:14:22;;;;;;;;;;;22.80;99.90;;;;;;5085958;28;19963;-69
2022/08/15 08:16:51;;;;;;;;;;;22.90;99.90;;;;;;5086000;28;19920;-67
2022/08/15 08:19:24;;;;;;;;;;;22.90;99.90;;;;;;5086142;28;20093;-68
2022/08/15 08:21:54;;;;;;;;;;;23.00;99.90;;;;;;5085104;28;19921;-68
2022/08/15 08:24:28;;;;;;;;;;;23.10;99.90;;;;;;5085776;28;20267;-67
2022/08/15 08:26:58;;;;;;;;;;;23.10;99.90;;;;;;5086046;28;19991;-68
2022/08/15 08:29:29;;;;;;;;;;;23.10;99.90;;;;;;5085741;28;19971;-68
2022/08/15 08:32:01;;;;;;;;;;;23.10;99.90;;;;;;5086085;28;19920;-68
2022/08/15 08:34:35;;;;;;;;;;;23.10;99.90;;;;;;5085661;28;19979;-68
2022/08/15 08:37:04;;;;;;;;;;;23.10;99.90;;;;;;5085738;28;19921;-69
2022/08/15 08:39:36;;;;;;;;;;;23.00;99.90;;;;;;5085638;28;20154;-68
2022/08/15 08:42:08;;;;;;;;;;;22.90;99.90;;;;;;5085681;28;19962;-68
2022/08/15 08:44:40;;;;;;;;;;;22.90;99.90;;;;;;5084490;28;19920;-68
2022/08/15 08:47:12;;;;;;;;;;;22.90;99.90;;;;;;5085722;28;20187;-68
2022/08/15 08:49:42;;;;;;;;;;;22.80;99.90;;;;;;5085422;28;19951;-68
2022/08/15 08:52:13;;;;;;;;;;;22.80;99.90;;;;;;5085385;28;19987;-68
2022/08/15 08:54:45;;;;;;;;;;;22.80;99.90;;;;;;5085110;28;19924;-68
2022/08/15 08:57:15;;;;;;;;;;;22.90;99.90;;;;;;5085659;28;19921;-68
2022/08/15 08:59:47;;;;;;;;;;;23.00;99.90;;;;;;5084490;28;19970;-68
2022/08/15 09:02:18;;;;;;;;;;;23.10;99.90;;;;;;5085440;28;19927;-67
2022/08/15 09:04:49;;;;;;;;;;;23.10;99.90;;;;;;5084677;28;20252;-68
2022/08/15 09:07:18;;;;;;;;;;;23.20;99.90;;;;;;5085431;28;19921;-68
2022/08/15 09:09:46;;;;;;;;;;;23.40;99.90;;;;;;5085147;28;19962;-68
2022/08/15 09:15:01;;;;;;;;;;;23.50;99.90;;;;;;5084730;28;19955;-68
2022/08/15 09:17:29;;;;;;;;;;;23.50;99.90;;;;;;5084905;28;20160;-68
2022/08/15 09:20:01;;;;;;;;;;;23.60;99.90;;;;;;5085240;28;20155;-68
2022/08/15 09:22:27;;;;;;;;;;;23.50;99.90;;;;;;5084066;28;19992;-68
2022/08/15 09:24:54;;;;;;;;;;;23.50;99.90;;;;;;5084652;28;19964;-68
2022/08/15 09:27:23;;;;;;;;;;;23.50;99.90;;;;;;5084951;28;19967;-68
2022/08/15 09:29:53;;;;;;;;;;;23.60;99.90;;;;;;5084702;28;19920;-68
2022/08/15 09:32:31;;;;;;;;;;;23.60;99.90;;;;;;5084822;28;19967;-68
2022/08/15 09:35:21;;;;;;;;;;;23.70;99.90;;;;;;5084768;28;19921;-69
2022/08/15 09:38:06;;;;;;;;;;;23.70;99.90;;;;;;5069050;28;19963;-68
2022/08/15 09:40:56;;;;;;;;;;;23.80;99.90;;;;;;5083978;28;19925;-68
2022/08/15 09:43:38;;;;;;;;;;;23.80;99.90;;;;;;5084213;28;20174;-68
2022/08/15 09:46:21;;;;;;;;;;;23.80;99.90;;;;;;5084306;28;19944;-68
2022/08/15 09:48:53;;;;;;;;;;;23.80;99.90;;;;;;5097537;22;19920;-72
2022/08/15 09:51:28;;;;;;;;;;;23.90;99.90;;;;;;5064190;28;20309;-73
2022/08/15 09:54:05;;;;;;;;;;;23.90;99.90;;;;;;5064230;28;19959;-71
2022/08/15 09:56:34;;;;;;;;;;;23.80;99.90;;;;;;5064312;28;19987;-72
2022/08/15 09:59:07;;;;;;;;;;;23.80;99.90;;;;;;5063625;28;19921;-73
2022/08/15 10:01:41;;;;;;;;;;;23.90;99.90;;;;;;5064637;28;19925;-72
2022/08/15 10:04:09;;;;;;;;;;;24.00;99.90;;;;;;5064038;28;19956;-73
2022/08/15 10:06:48;;;;;;;;;;;24.00;99.90;;;;;;5064369;28;19921;-74
2022/08/15 10:09:19;;;;;;;;;;;24.10;99.90;;;;;;5064116;28;19925;-74
2022/08/15 10:11:57;;;;;;;;;;;24.30;99.90;;;;;;5064190;28;19963;-73
2022/08/15 10:14:28;;;;;;;;;;;24.40;99.90;;;;;;5063898;28;19963;-73
2022/08/15 10:16:55;;;;;;;;;;;24.50;99.90;;;;;;5064284;28;19999;-74
2022/08/15 10:19:30;;;;;;;;;;;24.70;99.90;;;;;;5064314;28;19920;-73
2022/08/15 10:21:59;;;;;;;;;;;24.70;99.90;;;;;;5063033;28;19928;-72
2022/08/15 10:24:28;;;;;;;;;;;24.80;99.90;;;;;;5063372;28;19967;-73
2022/08/15 10:27:12;;;;;;;;;;;24.80;99.90;;;;;;5063944;28;19927;-73
2022/08/15 10:29:40;;;;;;;;;;;24.80;99.90;;;;;;5064056;28;19920;-73
2022/08/15 10:32:19;;;;;;;;;;;24.90;99.90;;;;;;5063458;28;20212;-73
2022/08/15 10:34:55;;;;;;;;;;;25.00;99.90;;;;;;5063690;28;19921;-72
2022/08/15 10:37:23;;;;;;;;;;;25.10;99.90;;;;;;5063521;28;19972;-70
2022/08/15 10:40:00;;;;;;;;;;;25.10;99.90;;;;;;5064064;28;19956;-72
2022/08/15 10:42:33;;;;;;;;;;;25.00;99.90;;;;;;5063471;28;20262;-73
2022/08/15 10:45:04;;;;;;;;;;;25.10;99.90;;;;;;5063281;28;19921;-71
2022/08/15 10:47:37;;;;;;;;;;;25.40;99.90;;;;;;5063595;28;19936;-73
2022/08/15 10:50:12;;;;;;;;;;;25.60;99.90;;;;;;5063273;28;19921;-73
2022/08/15 10:52:47;;;;;;;;;;;25.80;99.90;;;;;;5063337;28;19920;-75
2022/08/15 10:55:27;;;;;;;;;;;26.00;99.90;;;;;;5063163;28;19960;-75
2022/08/15 10:57:58;;;;;;;;;;;26.30;99.90;;;;;;5063652;28;19957;-73
2022/08/15 11:00:39;;;;;;;;;;;26.40;99.90;;;;;;5062760;28;20115;-72
2022/08/15 11:03:07;;;;;;;;;;;26.40;99.90;;;;;;5063271;28;20131;-73
2022/08/15 11:05:34;;;;;;;;;;;26.20;99.90;;;;;;5063031;28;19928;-73
2022/08/15 11:08:01;;;;;;;;;;;26.20;99.90;;;;;;5063117;28;19921;-72
2022/08/15 11:10:28;;;;;;;;;;;26.20;99.90;;;;;;5062951;28;19943;-72
2022/08/15 11:12:59;;;;;;;;;;;26.20;99.90;;;;;;5062957;28;19920;-72
2022/08/15 11:15:27;;;;;;;;;;;26.10;99.90;;;;;;5063076;28;19921;-74
2022/08/15 11:18:00;;;;;;;;;;;26.00;99.90;;;;;;5062984;28;19959;-73
2022/08/15 11:20:35;;;;;;;;;;;25.80;99.90;;;;;;5063277;28;19921;-73
2022/08/15 11:23:03;;;;;;;;;;;25.70;99.90;;;;;;5061917;28;19984;-74
2022/08/15 11:25:30;;;;;;;;;;;25.70;99.90;;;;;;5062898;28;19921;-72
2022/08/15 11:28:04;;;;;;;;;;;25.70;99.90;;;;;;5062939;28;20239;-72
2022/08/15 11:30:32;;;;;;;;;;;25.60;99.90;;;;;;5062771;28;20212;-74
2022/08/15 11:33:14;;;;;;;;;;;25.60;99.90;;;;;;5062878;28;19920;-72
2022/08/15 11:35:40;;;;;;;;;;;25.60;99.90;;;;;;5062544;28;19963;-75
2022/08/15 11:38:07;;;;;;;;;;;25.70;99.90;;;;;;5066978;28;20165;-71
2022/08/15 11:40:36;;;;;;;;;;;25.90;99.90;;;;;;5066849;28;20223;-72
2022/08/15 11:43:06;;;;;;;;;;;26.00;99.90;;;;;;5066622;28;19988;-72
2022/08/15 11:45:34;;;;;;;;;;;26.00;99.90;;;;;;5066864;28;19921;-72
2022/08/15 11:48:01;;;;;;;;;;;26.10;99.90;;;;;;5066979;28;19928;-73
2022/08/15 11:50:30;;;;;;;;;;;26.50;99.90;;;;;;5066547;28;20271;-75
2022/08/15 11:52:58;;;;;;;;;;;26.80;99.90;;;;;;5066515;28;20203;-75
2022/08/15 11:55:41;;;;;;;;;;;27.10;99.90;;;;;;5066550;28;20211;-73
2022/08/15 11:58:20;;;;;;;;;;;27.50;99.90;;;;;;5066856;28;19960;-73
2022/08/15 12:00:48;;;;;;;;;;;27.90;99.90;;;;;;5065764;28;19927;-72
2022/08/15 12:03:20;;;;;;;;;;;28.10;99.80;;;;;;5066273;28;19967;-73
2022/08/15 12:05:47;;;;;;;;;;;27.90;99.20;;;;;;5066223;28;19920;-73
2022/08/15 12:08:14;;;;;;;;;;;27.90;99.10;;;;;;5066382;28;19984;-73
2022/08/15 12:10:43;;;;;;;;;;;27.80;98.50;;;;;;5066547;28;19921;-74
2022/08/15 12:13:16;;;;;;;;;;;28.00;98.00;;;;;;5066017;28;19963;-73
2022/08/15 12:15:44;;;;;;;;;;;28.20;98.30;;;;;;5066114;28;19984;-73
2022/08/15 12:18:13;;;;;;;;;;;28.20;97.50;;;;;;5066226;28;19984;-74
2022/08/15 12:20:45;;;;;;;;;;;28.20;97.10;;;;;;5066027;28;20259;-73
2022/08/15 12:23:19;;;;;;;;;;;28.10;97.00;;;;;;5065107;28;19921;-73
2022/08/15 12:25:49;;;;;;;;;;;27.90;97.30;;;;;;5066349;28;19970;-74
2022/08/15 12:28:16;;;;;;;;;;;27.80;97.60;;;;;;5066072;28;19956;-72
2022/08/15 12:30:45;;;;;;;;;;;27.90;97.10;;;;;;5065903;28;19956;-73
2022/08/15 12:33:12;;;;;;;;;;;28.00;97.30;;;;;;5065554;28;19935;-72
2022/08/15 12:35:38;;;;;;;;;;;28.00;97.30;;;;;;5065990;28;19921;-73
2022/08/15 12:38:05;;;;;;;;;;;28.10;97.20;;;;;;5065866;28;19927;-72
2022/08/15 12:40:32;;;;;;;;;;;28.30;95.90;;;;;;5065784;28;19984;-73
2022/08/15 12:42:58;;;;;;;;;;;28.50;95.60;;;;;;5065587;28;19960;-73
2022/08/15 12:45:25;;;;;;;;;;;28.70;95.30;;;;;;5065424;28;20116;-72
2022/08/15 12:47:53;;;;;;;;;;;29.00;95.50;;;;;;5065582;28;20215;-73
2022/08/15 12:50:20;;;;;;;;;;;29.30;94.60;;;;;;5065458;28;19960;-72
2022/08/15 12:52:48;;;;;;;;;;;29.50;94.60;;;;;;5065239;28;19956;-73
2022/08/15 12:55:14;;;;;;;;;;;29.80;94.80;;;;;;5065466;28;19959;-74
2022/08/15 12:57:41;;;;;;;;;;;30.10;93.40;;;;;;5065346;28;19921;-74
2022/08/15 13:00:08;;;;;;;;;;;30.30;92.20;;;;;;5065155;28;19959;-73
2022/08/15 13:02:36;;;;;;;;;;;30.00;92.20;;;;;;5065397;28;19936;-72
2022/08/15 13:05:06;;;;;;;;;;;30.10;92.40;;;;;;5065056;28;20115;-73
2022/08/15 13:07:33;;;;;;;;;;;30.10;91.90;;;;;;5065350;28;20135;-75
2022/08/15 13:10:01;;;;;;;;;;;30.10;91.80;;;;;;5065169;28;20172;-74
2022/08/15 13:12:27;;;;;;;;;;;30.10;91.60;;;;;;5065176;28;20116;-73
2022/08/15 13:14:54;;;;;;;;;;;30.10;91.10;;;;;;5064780;28;20190;-75
2022/08/15 13:17:21;;;;;;;;;;;30.10;91.50;;;;;;5065102;28;19984;-75
2022/08/15 13:25:19;;;;;;;;;;;30.10;90.40;;;;;;5064893;28;19927;-74
2022/08/15 13:27:48;;;;;;;;;;;30.10;89.80;;;;;;5064894;28;19984;-72
2022/08/15 13:30:16;;;;;;;;;;;30.10;90.20;;;;;;5064869;28;19925;-74
2022/08/15 13:32:42;;;;;;;;;;;30.00;90.60;;;;;;5064647;28;20178;-72
2022/08/15 13:35:10;;;;;;;;;;;30.20;90.20;;;;;;5064581;28;19983;-72
2022/08/15 13:37:39;;;;;;;;;;;30.40;89.60;;;;;;5064608;28;19921;-72
2022/08/15 13:40:06;;;;;;;;;;;30.60;87.40;;;;;;5064711;28;19975;-72
2022/08/15 13:42:33;;;;;;;;;;;30.50;87.90;;;;;;5064680;28;19979;-72
2022/08/15 13:45:01;;;;;;;;;;;30.50;87.20;;;;;;5064610;28;19975;-73
2022/08/15 13:47:28;;;;;;;;;;;30.40;87.90;;;;;;5064607;28;19920;-72
2022/08/15 13:49:54;;;;;;;;;;;30.60;87.90;;;;;;5064256;28;19962;-72
2022/08/15 13:52:22;;;;;;;;;;;30.70;88.00;;;;;;5064381;28;19929;-74
2022/08/15 13:54:50;;;;;;;;;;;30.70;87.40;;;;;;5064039;28;19929;-72
2022/08/15 13:57:19;;;;;;;;;;;30.90;87.10;;;;;;5064647;28;19921;-72
2022/08/15 13:59:46;;;;;;;;;;;30.70;85.90;;;;;;5063072;28;19956;-73
2022/08/15 14:02:15;;;;;;;;;;;30.70;86.70;;;;;;5064438;28;19953;-73
2022/08/15 14:04:42;;;;;;;;;;;30.60;84.60;;;;;;5063688;28;20155;-72
2022/08/15 14:07:11;;;;;;;;;;;30.70;85.50;;;;;;5064228;28;19988;-72
2022/08/15 14:09:38;;;;;;;;;;;30.80;86.20;;;;;;5063897;28;19927;-73
2022/08/15 14:12:07;;;;;;;;;;;30.90;85.80;;;;;;5064119;28;19921;-73
2022/08/15 14:14:34;;;;;;;;;;;31.00;85.50;;;;;;5063599;28;19920;-72
2022/08/15 14:17:01;;;;;;;;;;;31.30;86.10;;;;;;5063928;28;19928;-73
2022/08/15 14:19:29;;;;;;;;;;;31.30;85.30;;;;;;5063676;28;19989;-72
2022/08/15 14:21:56;;;;;;;;;;;31.40;85.70;;;;;;5063826;28;19925;-71
2022/08/15 14:24:23;;;;;;;;;;;31.50;85.00;;;;;;5063395;28;20230;-72
2022/08/15 14:26:50;;;;;;;;;;;31.30;83.30;;;;;;5063675;28;20235;-71
2022/08/15 14:29:22;;;;;;;;;;;31.10;84.30;;;;;;5063744;28;19928;-72
2022/08/15 14:31:49;;;;;;;;;;;30.80;84.70;;;;;;5063612;28;19927;-72
2022/08/15 14:34:16;;;;;;;;;;;30.80;84.70;;;;;;5063266;28;19991;-72
2022/08/15 14:36:43;;;;;;;;;;;30.80;84.40;;;;;;5063793;28;20020;-73